createdAt,value
2022-10-25T00:01:24.166Z,12.77
2022-10-25T00:03:52.050Z,12.84
2022-10-25T00:06:19.804Z,12.83
2022-10-25T00:08:47.489Z,12.84
2022-10-25T00:11:20.599Z,12.86
2022-10-25T00:13:51.056Z,12.90
2022-10-25T00:16:20.640Z,12.93
2022-10-25T00:18:48.519Z,12.87
2022-10-25T00:21:16.088Z,12.91
2022-10-25T00:23:43.651Z,12.97
2022-10-25T00:26:12.852Z,12.97
2022-10-25T00:28:40.933Z,13.01
2022-10-25T00:31:12.264Z,12.93
2022-10-25T00:33:41.283Z,12.88
2022-10-25T00:36:11.615Z,12.76
2022-10-25T00:38:40.029Z,12.68
2022-10-25T00:41:08.499Z,12.65
2022-10-25T00:43:38.341Z,12.67
2022-10-25T00:46:08.950Z,12.72
2022-10-25T00:48:38.400Z,12.73
2022-10-25T00:51:06.642Z,12.82
2022-10-25T00:53:36.564Z,12.81
2022-10-25T00:56:08.911Z,12.92
2022-10-25T00:58:38.569Z,12.91
2022-10-25T01:01:08.645Z,12.94
2022-10-25T01:03:40.127Z,12.97
2022-10-25T01:06:24.616Z,13.03
2022-10-25T01:08:53.381Z,13.07
2022-10-25T01:11:21.571Z,13.17
2022-10-25T01:13:49.632Z,13.21
2022-10-25T01:16:25.673Z,13.16
2022-10-25T01:19:01.023Z,13.26
2022-10-25T01:21:43.202Z,13.27
2022-10-25T01:24:38.975Z,13.35
2022-10-25T01:27:17.260Z,13.36
2022-10-25T01:30:01.760Z,13.45
2022-10-25T01:32:36.520Z,13.43
2022-10-25T01:35:08.757Z,13.46
2022-10-25T01:37:44.507Z,13.54
2022-10-25T01:40:18.070Z,13.59
2022-10-25T01:42:50.767Z,13.58
2022-10-25T01:45:23.064Z,13.58
2022-10-25T01:47:53.769Z,13.65
2022-10-25T01:50:24.169Z,13.71
2022-10-25T01:52:51.784Z,13.69
2022-10-25T01:55:20.797Z,13.69
2022-10-25T01:57:59.612Z,13.74
2022-10-25T02:00:27.878Z,13.75
2022-10-25T02:03:16.535Z,13.81
2022-10-25T02:05:56.008Z,13.90
2022-10-25T02:08:30.344Z,13.86
2022-10-25T02:11:02.942Z,13.86
2022-10-25T02:13:34.202Z,13.83
2022-10-25T02:16:04.037Z,13.86
2022-10-25T02:18:36.822Z,13.92
2022-10-25T02:21:06.825Z,13.90
2022-10-25T02:23:35.843Z,13.87
2022-10-25T02:26:05.312Z,13.84
2022-10-25T02:28:34.222Z,13.91
2022-10-25T02:31:02.342Z,13.87
2022-10-25T02:33:30.053Z,13.88
2022-10-25T02:36:10.571Z,13.94
2022-10-25T02:38:38.778Z,13.87
2022-10-25T02:41:07.508Z,13.90
2022-10-25T02:43:35.507Z,13.89
2022-10-25T02:46:06.909Z,13.90
2022-10-25T02:48:34.701Z,13.86
2022-10-25T02:51:02.358Z,13.81
2022-10-25T02:53:32.106Z,13.82
2022-10-25T02:56:03.678Z,13.82
2022-10-25T02:58:33.197Z,13.87
2022-10-25T03:01:01.394Z,13.84
2022-10-25T03:03:29.558Z,13.89
2022-10-25T03:05:57.549Z,13.94
2022-10-25T03:08:25.427Z,13.93
2022-10-25T03:10:55.041Z,13.87
2022-10-25T03:13:23.119Z,13.73
2022-10-25T03:15:51.026Z,13.76
2022-10-25T03:18:19.085Z,13.82
2022-10-25T03:20:46.753Z,13.77
2022-10-25T03:23:14.384Z,13.79
2022-10-25T03:25:42.433Z,13.72
2022-10-25T03:28:11.464Z,13.75
2022-10-25T03:30:42.828Z,13.69
2022-10-25T03:33:10.458Z,13.69
2022-10-25T03:35:38.142Z,13.67
2022-10-25T03:38:06.060Z,13.70
2022-10-25T03:40:33.583Z,13.75
2022-10-25T03:43:01.137Z,13.71
2022-10-25T03:45:30.100Z,13.70
2022-10-25T03:47:57.697Z,13.67
2022-10-25T03:50:25.259Z,13.62
2022-10-25T03:52:52.807Z,13.68
2022-10-25T03:55:20.630Z,13.72
2022-10-25T03:57:48.656Z,13.78
2022-10-25T04:00:16.627Z,13.79
2022-10-25T04:02:45.830Z,13.80
2022-10-25T04:05:13.456Z,13.74
2022-10-25T04:07:40.927Z,13.98
2022-10-25T04:10:09.233Z,13.90
2022-10-25T04:12:36.782Z,13.85
2022-10-25T04:15:04.849Z,13.84
2022-10-25T04:17:32.517Z,13.81
2022-10-25T04:20:01.458Z,13.85
2022-10-25T04:22:29.023Z,13.82
2022-10-25T04:24:56.768Z,13.81
2022-10-25T04:27:24.518Z,13.83
2022-10-25T04:29:52.223Z,13.76
2022-10-25T04:34:48.162Z,13.77
2022-10-25T04:37:17.303Z,13.77
2022-10-25T04:39:44.849Z,13.84
2022-10-25T04:42:12.581Z,13.82
2022-10-25T04:44:40.065Z,13.84
2022-10-25T04:47:07.661Z,13.94
2022-10-25T04:49:35.294Z,13.87
2022-10-25T04:52:02.988Z,13.83
2022-10-25T04:54:32.996Z,13.85
2022-10-25T04:57:00.679Z,13.85
2022-10-25T04:59:28.208Z,13.84
2022-10-25T05:01:55.892Z,13.80
2022-10-25T05:04:23.663Z,13.77
2022-10-25T05:06:51.918Z,13.65
2022-10-25T05:09:19.670Z,13.56
2022-10-25T05:11:48.601Z,13.55
2022-10-25T05:14:16.228Z,13.54
2022-10-25T05:16:44.138Z,13.48
2022-10-25T05:19:12.685Z,13.47
2022-10-25T05:21:40.186Z,13.47
2022-10-25T05:24:07.958Z,13.54
2022-10-25T05:26:36.182Z,13.58
2022-10-25T05:29:09.986Z,13.56
2022-10-25T05:31:38.579Z,13.66
2022-10-25T05:34:06.334Z,13.56
2022-10-25T05:36:34.074Z,13.62
2022-10-25T05:39:02.223Z,13.60
2022-10-25T05:41:33.253Z,13.60
2022-10-25T05:44:05.925Z,13.56
2022-10-25T05:46:33.783Z,13.55
2022-10-25T05:49:01.558Z,13.49
2022-10-25T05:51:38.029Z,13.55
2022-10-25T05:54:07.088Z,13.46
2022-10-25T05:56:36.150Z,13.44
2022-10-25T05:59:08.689Z,13.36
2022-10-25T06:01:37.404Z,13.38
2022-10-25T06:04:05.404Z,13.19
2022-10-25T06:06:33.530Z,13.03
2022-10-25T06:09:02.686Z,13.06
2022-10-25T06:11:30.764Z,12.97
2022-10-25T06:13:58.480Z,12.95
2022-10-25T06:16:27.403Z,12.86
2022-10-25T06:18:55.062Z,12.87
2022-10-25T06:21:24.127Z,12.83
2022-10-25T06:23:52.373Z,12.90
2022-10-25T06:26:21.726Z,13.04
2022-10-25T06:28:49.731Z,12.93
2022-10-25T06:31:19.032Z,13.02
2022-10-25T06:33:48.245Z,12.97
2022-10-25T06:36:17.706Z,12.78
2022-10-25T06:38:45.513Z,12.68
2022-10-25T06:41:15.371Z,12.84
2022-10-25T06:43:43.607Z,12.66
2022-10-25T06:46:14.138Z,12.62
2022-10-25T06:48:41.928Z,12.84
2022-10-25T06:51:11.119Z,12.96
2022-10-25T06:53:39.682Z,13.06
2022-10-25T06:56:10.599Z,13.22
2022-10-25T06:58:43.553Z,13.27
2022-10-25T07:01:14.064Z,13.29
2022-10-25T07:03:42.052Z,13.23
2022-10-25T07:06:12.637Z,13.16
2022-10-25T07:08:42.029Z,13.12
2022-10-25T07:11:14.299Z,13.18
2022-10-25T07:13:42.436Z,13.22
2022-10-25T07:16:11.888Z,13.56
2022-10-25T07:18:39.744Z,13.75
2022-10-25T07:21:08.647Z,13.84
2022-10-25T07:23:41.906Z,13.86
2022-10-25T07:26:10.353Z,13.91
2022-10-25T07:28:38.322Z,14.12
2022-10-25T07:31:06.595Z,14.03
2022-10-25T07:33:34.971Z,14.06
2022-10-25T07:36:10.213Z,14.06
2022-10-25T07:38:39.804Z,14.08
2022-10-25T07:41:07.953Z,14.05
2022-10-25T07:43:35.753Z,14.09
2022-10-25T07:46:03.628Z,14.15
2022-10-25T07:48:31.408Z,14.09
2022-10-25T07:50:59.024Z,14.12
2022-10-25T07:53:26.576Z,14.08
2022-10-25T07:55:56.242Z,14.09
2022-10-25T07:58:24.203Z,14.09
2022-10-25T08:00:51.850Z,14.14
2022-10-25T08:03:19.676Z,14.15
2022-10-25T08:05:48.626Z,14.11
2022-10-25T08:08:16.762Z,14.15
2022-10-25T08:10:45.165Z,14.20
2022-10-25T08:13:14.115Z,14.23
2022-10-25T08:15:41.799Z,14.39
2022-10-25T08:18:09.463Z,14.35
2022-10-25T08:21:00.667Z,14.42
2022-10-25T08:23:25.233Z,14.59
2022-10-25T08:25:53.332Z,14.52
2022-10-25T08:28:22.458Z,14.60
2022-10-25T08:30:50.367Z,14.65
2022-10-25T08:33:17.932Z,14.73
2022-10-25T08:35:45.702Z,14.81
2022-10-25T08:38:13.308Z,14.91
2022-10-25T08:40:50.241Z,14.59
2022-10-25T08:43:41.708Z,14.86
2022-10-25T08:46:13.629Z,15.00
2022-10-25T08:48:43.857Z,14.83
2022-10-25T08:51:15.648Z,14.93
2022-10-25T08:53:48.417Z,14.93
2022-10-25T08:56:18.095Z,14.74
2022-10-25T08:58:50.990Z,14.75
2022-10-25T09:01:23.760Z,15.02
2022-10-25T09:03:51.600Z,14.85
2022-10-25T09:06:25.503Z,14.88
2022-10-25T09:09:05.808Z,15.09
2022-10-25T09:11:44.429Z,14.99
2022-10-25T09:14:19.214Z,14.79
2022-10-25T09:16:51.206Z,14.78
2022-10-25T09:19:21.741Z,14.92
2022-10-25T09:21:51.565Z,14.76
2022-10-25T09:24:22.902Z,14.83
2022-10-25T09:26:57.384Z,14.86
2022-10-25T09:29:29.285Z,14.75
2022-10-25T09:31:58.483Z,14.85
2022-10-25T09:34:29.489Z,15.08
2022-10-25T09:37:04.841Z,14.96
2022-10-25T09:39:36.782Z,15.09
2022-10-25T09:42:04.780Z,14.95
2022-10-25T09:44:38.507Z,15.24
2022-10-25T09:47:14.177Z,15.09
2022-10-25T09:49:46.366Z,15.19
2022-10-25T09:52:19.685Z,15.08
2022-10-25T09:54:50.629Z,15.09
2022-10-25T09:57:18.232Z,15.10
2022-10-25T09:59:50.874Z,15.14
2022-10-25T10:02:23.302Z,14.99
2022-10-25T10:04:51.376Z,14.97
2022-10-25T10:07:22.153Z,14.93
2022-10-25T10:09:50.662Z,14.98
2022-10-25T10:12:22.197Z,15.07
2022-10-25T10:14:56.632Z,15.19
2022-10-25T10:17:24.371Z,15.07
2022-10-25T10:20:11.571Z,15.09
2022-10-25T10:22:40.082Z,15.15
2022-10-25T10:25:16.679Z,15.33
2022-10-25T10:27:45.546Z,15.70
2022-10-25T10:30:23.959Z,15.71
2022-10-25T10:32:57.391Z,15.97
2022-10-25T10:35:28.705Z,15.77
2022-10-25T10:38:14.187Z,15.89
2022-10-25T10:40:42.079Z,16.00
2022-10-25T10:43:24.176Z,15.96
2022-10-25T10:45:53.295Z,15.71
2022-10-25T10:48:22.506Z,15.30
2022-10-25T10:50:51.066Z,15.31
2022-10-25T10:53:21.933Z,15.34
2022-10-25T10:55:51.114Z,15.45
2022-10-25T10:58:20.324Z,15.60
2022-10-25T11:00:53.744Z,15.80
2022-10-25T11:03:59.141Z,15.99
2022-10-25T11:06:30.069Z,15.56
2022-10-25T11:09:15.644Z,15.85
2022-10-25T11:11:43.279Z,15.85
2022-10-25T11:14:13.039Z,15.99
2022-10-25T11:16:49.196Z,15.82
2022-10-25T11:19:27.901Z,16.35
2022-10-25T11:22:06.535Z,16.39
2022-10-25T11:24:38.259Z,16.30
2022-10-25T11:27:14.405Z,16.08
2022-10-25T11:29:51.034Z,15.73
2022-10-25T11:32:41.569Z,15.62
2022-10-25T11:35:21.016Z,16.19
2022-10-25T11:37:53.141Z,16.17
2022-10-25T11:40:22.848Z,16.24
2022-10-25T11:43:02.259Z,16.95
2022-10-25T11:45:37.345Z,16.92
2022-10-25T11:48:19.293Z,17.06
2022-10-25T11:50:53.470Z,16.94
2022-10-25T11:53:36.002Z,16.90
2022-10-25T11:56:09.621Z,17.01
2022-10-25T11:58:45.133Z,17.00
2022-10-25T12:01:23.744Z,17.17
2022-10-25T12:04:01.651Z,17.68
2022-10-25T12:06:35.263Z,16.86
2022-10-25T12:09:08.636Z,17.01
2022-10-25T12:11:41.795Z,16.27
2022-10-25T12:14:13.291Z,16.42
2022-10-25T12:16:41.619Z,16.31
2022-10-25T12:19:16.053Z,16.36
2022-10-25T12:21:46.162Z,16.42
2022-10-25T12:24:19.841Z,16.57
2022-10-25T12:26:48.342Z,16.71
2022-10-25T12:29:18.915Z,16.39
2022-10-25T12:31:49.320Z,16.38
2022-10-25T12:34:21.004Z,16.55
2022-10-25T12:36:51.129Z,17.08
2022-10-25T12:39:22.834Z,16.86
2022-10-25T12:41:52.422Z,17.17
2022-10-25T12:44:37.555Z,17.05
2022-10-25T12:47:20.390Z,17.56
2022-10-25T12:50:04.795Z,17.56
2022-10-25T12:52:35.201Z,17.53
2022-10-25T12:55:36.201Z,17.43
2022-10-25T12:58:18.476Z,17.44
2022-10-25T13:01:01.163Z,17.41
2022-10-25T13:03:44.631Z,17.25
2022-10-25T13:06:23.384Z,16.68
2022-10-25T13:08:51.248Z,16.84
2022-10-25T13:11:18.764Z,16.41
2022-10-25T13:13:49.632Z,16.32
2022-10-25T13:16:24.776Z,16.23
2022-10-25T13:19:30.605Z,16.32
2022-10-25T13:22:35.674Z,16.29
2022-10-25T13:25:07.197Z,16.35
2022-10-25T13:27:36.199Z,17.32
2022-10-25T13:30:26.925Z,18.54
2022-10-25T13:33:27.600Z,18.81
2022-10-25T13:36:04.038Z,19.71
2022-10-25T13:38:39.322Z,19.27
2022-10-25T13:41:12.741Z,20.32
2022-10-25T13:43:57.402Z,20.42
2022-10-25T13:46:27.524Z,19.46
2022-10-25T13:48:57.316Z,18.86
2022-10-25T13:51:24.901Z,17.80
2022-10-25T13:53:54.063Z,17.22
2022-10-25T13:56:36.663Z,17.09
2022-10-25T13:59:05.293Z,17.12
2022-10-25T14:01:56.921Z,17.15
2022-10-25T14:04:40.483Z,17.37
2022-10-25T14:07:42.865Z,18.01
2022-10-25T14:10:21.127Z,18.68
2022-10-25T14:12:50.851Z,19.77
2022-10-25T14:15:27.121Z,20.95
2022-10-25T14:17:54.795Z,20.02
2022-10-25T14:20:26.643Z,19.91
2022-10-25T14:22:55.311Z,19.53
2022-10-25T14:25:26.167Z,19.59
2022-10-25T14:28:06.025Z,20.29
2022-10-25T14:30:37.142Z,19.81
2022-10-25T14:33:07.415Z,19.41
2022-10-25T14:35:36.108Z,19.90
2022-10-25T14:38:12.412Z,19.91
2022-10-25T14:40:41.299Z,19.27
2022-10-25T14:43:30.870Z,18.24
2022-10-25T14:46:01.519Z,18.89
2022-10-25T14:48:29.786Z,19.35
2022-10-25T14:50:59.451Z,19.97
2022-10-25T14:53:28.398Z,18.62
2022-10-25T14:56:00.089Z,18.05
2022-10-25T14:58:28.139Z,17.77
2022-10-25T15:00:57.214Z,18.72
2022-10-25T15:03:25.219Z,18.78
2022-10-25T15:05:53.295Z,18.97
2022-10-25T15:08:23.106Z,18.45
2022-10-25T15:10:51.765Z,18.43
2022-10-25T15:13:24.499Z,17.59
2022-10-25T15:15:52.583Z,17.29
2022-10-25T15:18:32.580Z,16.96
2022-10-25T15:21:04.634Z,16.70
2022-10-25T15:23:32.890Z,16.55
2022-10-25T15:26:20.443Z,16.45
2022-10-25T15:28:50.583Z,16.12
2022-10-25T15:31:23.789Z,15.79
2022-10-25T15:33:59.819Z,15.77
2022-10-25T15:36:28.875Z,15.97
2022-10-25T15:39:16.976Z,15.78
2022-10-25T15:41:44.942Z,15.62
2022-10-25T15:44:13.756Z,15.42
2022-10-25T15:46:41.434Z,15.22
2022-10-25T15:49:10.883Z,15.16
2022-10-25T15:51:40.326Z,15.09
2022-10-25T15:54:14.304Z,14.80
2022-10-25T15:56:41.758Z,14.75
2022-10-25T15:59:09.550Z,14.74
2022-10-25T16:01:39.255Z,14.37
2022-10-25T16:04:06.814Z,14.48
2022-10-25T16:06:34.338Z,14.16
2022-10-25T16:09:01.821Z,13.80
2022-10-25T16:11:29.465Z,13.93
2022-10-25T16:13:56.988Z,13.70
2022-10-25T16:16:39.987Z,13.75
2022-10-25T16:19:13.752Z,13.52
2022-10-25T16:21:41.308Z,12.83
2022-10-25T16:24:09.027Z,13.20
2022-10-25T16:26:38.712Z,12.78
2022-10-25T16:29:06.340Z,12.54
2022-10-25T16:31:34.012Z,12.84
2022-10-25T16:34:01.483Z,12.48
2022-10-25T16:36:30.305Z,12.39
2022-10-25T16:38:57.998Z,12.62
2022-10-25T16:41:29.254Z,11.96
2022-10-25T16:43:57.022Z,11.95
2022-10-25T16:46:24.834Z,12.65
2022-10-25T16:48:52.449Z,12.28
2022-10-25T16:51:20.849Z,11.62
2022-10-25T16:53:50.003Z,11.62
2022-10-25T16:56:18.103Z,11.75
2022-10-25T16:58:45.823Z,11.78
2022-10-25T17:01:18.778Z,11.32
2022-10-25T17:03:49.070Z,11.25
2022-10-25T17:06:39.822Z,11.31
2022-10-25T17:09:05.637Z,11.59
2022-10-25T17:11:33.305Z,11.12
2022-10-25T17:14:01.546Z,10.99
2022-10-25T17:16:29.581Z,10.87
2022-10-25T17:18:57.268Z,10.74
2022-10-25T17:21:24.811Z,10.72
2022-10-25T17:23:52.317Z,10.60
2022-10-25T17:26:21.158Z,10.70
2022-10-25T17:28:48.652Z,10.52
2022-10-25T17:31:16.497Z,10.46
2022-10-25T17:33:44.520Z,10.47
2022-10-25T17:36:13.393Z,10.29
2022-10-25T17:38:41.650Z,10.45
2022-10-25T17:41:09.600Z,10.40
2022-10-25T17:43:39.678Z,10.35
2022-10-25T17:46:09.480Z,10.16
2022-10-25T17:48:37.503Z,10.27
2022-10-25T17:51:07.081Z,10.11
2022-10-25T17:53:35.370Z,10.08
2022-10-25T17:56:11.079Z,10.32
2022-10-25T17:58:40.951Z,9.99
2022-10-25T18:01:11.163Z,9.98
2022-10-25T18:03:39.231Z,10.28
2022-10-25T18:06:09.770Z,10.22
2022-10-25T18:08:37.912Z,10.05
2022-10-25T18:11:09.423Z,10.18
2022-10-25T18:13:38.953Z,10.19
2022-10-25T18:16:09.100Z,10.26
2022-10-25T18:18:36.872Z,10.12
2022-10-25T18:21:05.325Z,10.15
2022-10-25T18:23:33.170Z,9.92
2022-10-25T18:26:01.455Z,10.12
2022-10-25T18:28:29.429Z,10.09
2022-10-25T18:30:59.916Z,9.95
2022-10-25T18:33:30.655Z,9.96
2022-10-25T18:35:59.231Z,9.82
2022-10-25T18:38:27.436Z,9.87
2022-10-25T18:40:59.177Z,9.92
2022-10-25T18:43:27.822Z,9.94
2022-10-25T18:45:59.262Z,9.97
2022-10-25T18:48:29.404Z,10.05
2022-10-25T18:50:57.205Z,10.08
2022-10-25T18:53:24.904Z,9.83
2022-10-25T18:55:52.700Z,9.85
2022-10-25T18:58:20.362Z,9.89
2022-10-25T19:00:48.701Z,9.71
2022-10-25T19:03:17.019Z,9.64
2022-10-25T19:05:46.299Z,9.62
2022-10-25T19:08:14.185Z,9.62
2022-10-25T19:10:43.004Z,9.58
2022-10-25T19:13:18.578Z,9.46
2022-10-25T19:15:46.314Z,9.37
2022-10-25T19:18:15.173Z,9.51
2022-10-25T19:20:46.242Z,9.33
2022-10-25T19:23:15.627Z,9.43
2022-10-25T19:25:43.406Z,9.39
2022-10-25T19:28:11.171Z,9.47
2022-10-25T19:30:40.324Z,9.44
2022-10-25T19:33:08.124Z,9.36
2022-10-25T19:35:35.857Z,9.42
2022-10-25T19:38:03.998Z,9.52
2022-10-25T19:40:33.161Z,9.57
2022-10-25T19:43:01.155Z,9.42
2022-10-25T19:45:28.937Z,9.26
2022-10-25T19:47:58.902Z,9.18
2022-10-25T19:50:27.132Z,9.03
2022-10-25T19:52:54.872Z,9.25
2022-10-25T19:55:22.574Z,8.86
2022-10-25T19:57:51.825Z,8.83
2022-10-25T20:00:20.071Z,9.04
2022-10-25T20:02:47.624Z,9.36
2022-10-25T20:05:15.626Z,9.26
2022-10-25T20:07:43.204Z,8.76
2022-10-25T20:10:11.179Z,8.83
2022-10-25T20:12:38.744Z,8.92
2022-10-25T20:15:08.666Z,8.77
2022-10-25T20:17:36.525Z,8.75
2022-10-25T20:20:04.758Z,8.78
2022-10-25T20:22:37.790Z,8.74
2022-10-25T20:25:07.149Z,8.81
2022-10-25T20:27:34.862Z,8.97
2022-10-25T20:30:02.620Z,8.71
2022-10-25T20:32:31.514Z,8.54
2022-10-25T20:34:59.221Z,8.60
2022-10-25T20:37:27.001Z,8.73
2022-10-25T20:39:54.879Z,9.03
2022-10-25T20:42:23.589Z,8.28
2022-10-25T20:44:51.465Z,8.64
2022-10-25T20:47:18.999Z,8.51
2022-10-25T20:49:48.094Z,8.54
2022-10-25T20:52:17.076Z,8.68
2022-10-25T20:54:44.876Z,8.80
2022-10-25T20:57:12.590Z,8.63
2022-10-25T20:59:40.316Z,8.50
2022-10-25T21:02:08.232Z,8.74
2022-10-25T21:04:42.775Z,8.51
2022-10-25T21:07:22.512Z,8.87
2022-10-25T21:09:50.242Z,8.81
2022-10-25T21:12:17.838Z,8.67
2022-10-25T21:14:46.541Z,8.72
2022-10-25T21:17:14.230Z,8.52
2022-10-25T21:19:41.769Z,8.69
2022-10-25T21:22:09.764Z,8.58
2022-10-25T21:24:38.655Z,8.84
2022-10-25T21:27:08.087Z,8.87
2022-10-25T21:29:35.964Z,8.64
2022-10-25T21:32:03.798Z,8.91
2022-10-25T21:34:31.520Z,8.65
2022-10-25T21:36:59.259Z,8.41
2022-10-25T21:39:27.016Z,8.45
2022-10-25T21:41:56.034Z,8.58
2022-10-25T21:44:23.673Z,8.44
2022-10-25T21:46:51.570Z,8.47
2022-10-25T21:49:19.792Z,8.36
2022-10-25T21:51:47.480Z,8.43
2022-10-25T21:54:15.211Z,8.48
2022-10-25T21:56:42.732Z,8.40
2022-10-25T21:59:11.728Z,8.25
2022-10-25T22:01:39.461Z,8.44
2022-10-25T22:04:07.469Z,8.30
2022-10-25T22:06:35.796Z,8.36
2022-10-25T22:09:04.108Z,8.45
2022-10-25T22:11:33.446Z,8.27
2022-10-25T22:14:02.656Z,8.32
2022-10-25T22:16:32.815Z,8.24
2022-10-25T22:19:03.175Z,8.36
2022-10-25T22:21:33.553Z,8.38
2022-10-25T22:24:01.128Z,8.45
2022-10-25T22:26:28.871Z,8.46
2022-10-25T22:28:58.306Z,8.49
2022-10-25T22:31:29.130Z,8.32
2022-10-25T22:33:59.587Z,8.23
2022-10-25T22:36:28.434Z,8.14
2022-10-25T22:38:56.682Z,8.17
2022-10-25T22:41:26.056Z,8.46
2022-10-25T22:43:54.077Z,8.14
2022-10-25T22:46:25.273Z,8.03
2022-10-25T22:48:54.199Z,8.13
2022-10-25T22:51:24.140Z,8.43
2022-10-25T22:53:51.856Z,8.16
2022-10-25T22:56:21.031Z,8.10
2022-10-25T22:58:50.066Z,8.08
2022-10-25T23:01:19.225Z,8.44
2022-10-25T23:03:48.971Z,8.28
2022-10-25T23:06:18.840Z,8.08
2022-10-25T23:08:47.978Z,8.11
2022-10-25T23:11:17.098Z,8.01
2022-10-25T23:13:45.673Z,8.14
2022-10-25T23:16:14.366Z,8.00
2022-10-25T23:18:42.465Z,8.18
2022-10-25T23:21:16.491Z,7.86
2022-10-25T23:23:44.139Z,7.93
2022-10-25T23:26:17.288Z,7.85
2022-10-25T23:28:45.016Z,7.94
2022-10-25T23:31:14.242Z,8.13
2022-10-25T23:33:42.807Z,8.12
2022-10-25T23:36:14.172Z,8.10
2022-10-25T23:38:42.201Z,7.90
2022-10-25T23:41:10.187Z,7.91
2022-10-25T23:43:40.072Z,8.12
2022-10-25T23:46:08.000Z,7.81
2022-10-25T23:48:36.443Z,8.00
2022-10-25T23:51:06.263Z,8.03
2022-10-25T23:53:34.406Z,8.01
2022-10-25T23:56:03.252Z,8.25
2022-10-25T23:58:31.058Z,8.04
